sensor_id;sensor_type;location;lat;lon;timestamp;temperature;humidity
35445;DHT22;21562;49.476;6.086;2023-12-04T00:00:48;3.90;1.00
35445;DHT22;21562;49.476;6.086;2023-12-04T00:03:13;4.00;1.00
35445;DHT22;21562;49.476;6.086;2023-12-04T00:05:42;4.00;1.00
35445;DHT22;21562;49.476;6.086;2023-12-04T00:08:08;4.00;1.00
35445;DHT22;21562;49.476;6.086;2023-12-04T00:10:34;4.10;1.00
35445;DHT22;21562;49.476;6.086;2023-12-04T00:13:00;4.30;1.00
35445;DHT22;21562;49.476;6.086;2023-12-04T00:15:25;4.20;1.00
35445;DHT22;21562;49.476;6.086;2023-12-04T00:17:51;4.10;1.00
35445;DHT22;21562;49.476;6.086;2023-12-04T00:20:17;3.90;1.00
35445;DHT22;21562;49.476;6.086;2023-12-04T00:22:42;3.90;1.00
35445;DHT22;21562;49.476;6.086;2023-12-04T00:25:08;4.00;1.00
35445;DHT22;21562;49.476;6.086;2023-12-04T00:27:34;3.30;1.00
35445;DHT22;21562;49.476;6.086;2023-12-04T00:29:59;3.20;1.00
35445;DHT22;21562;49.476;6.086;2023-12-04T00:32:25;3.30;1.00
35445;DHT22;21562;49.476;6.086;2023-12-04T00:34:51;3.60;1.00
35445;DHT22;21562;49.476;6.086;2023-12-04T00:37:16;3.20;1.00
35445;DHT22;21562;49.476;6.086;2023-12-04T00:39:42;3.40;1.00
35445;DHT22;21562;49.476;6.086;2023-12-04T00:42:08;3.50;1.00
35445;DHT22;21562;49.476;6.086;2023-12-04T00:44:33;3.40;1.00
35445;DHT22;21562;49.476;6.086;2023-12-04T00:46:59;3.40;1.00
35445;DHT22;21562;49.476;6.086;2023-12-04T00:49:24;3.60;1.00
35445;DHT22;21562;49.476;6.086;2023-12-04T00:51:50;3.70;1.00
35445;DHT22;21562;49.476;6.086;2023-12-04T00:54:16;3.50;1.00
35445;DHT22;21562;49.476;6.086;2023-12-04T00:56:42;3.50;1.00
35445;DHT22;21562;49.476;6.086;2023-12-04T00:59:09;3.50;1.00
35445;DHT22;21562;49.476;6.086;2023-12-04T01:01:38;3.30;1.00
35445;DHT22;21562;49.476;6.086;2023-12-04T01:04:04;3.20;1.00
35445;DHT22;21562;49.476;6.086;2023-12-04T01:06:30;3.40;1.00
35445;DHT22;21562;49.476;6.086;2023-12-04T01:08:56;3.20;1.00
35445;DHT22;21562;49.476;6.086;2023-12-04T01:11:22;3.20;1.00
35445;DHT22;21562;49.476;6.086;2023-12-04T01:13:49;2.90;1.00
35445;DHT22;21562;49.476;6.086;2023-12-04T01:16:15;2.70;1.00
35445;DHT22;21562;49.476;6.086;2023-12-04T01:18:42;2.90;1.00
35445;DHT22;21562;49.476;6.086;2023-12-04T01:21:08;3.00;1.00
35445;DHT22;21562;49.476;6.086;2023-12-04T01:23:35;2.90;1.00
35445;DHT22;21562;49.476;6.086;2023-12-04T01:26:02;3.10;1.00
35445;DHT22;21562;49.476;6.086;2023-12-04T01:28:27;3.20;1.00
35445;DHT22;21562;49.476;6.086;2023-12-04T01:30:53;3.30;1.00
35445;DHT22;21562;49.476;6.086;2023-12-04T01:33:19;3.30;1.00
35445;DHT22;21562;49.476;6.086;2023-12-04T01:35:44;3.40;1.00
35445;DHT22;21562;49.476;6.086;2023-12-04T01:38:10;3.50;1.00
35445;DHT22;21562;49.476;6.086;2023-12-04T01:40:36;3.60;1.00
35445;DHT22;21562;49.476;6.086;2023-12-04T01:43:01;3.50;1.00
35445;DHT22;21562;49.476;6.086;2023-12-04T01:45:27;3.50;1.00
35445;DHT22;21562;49.476;6.086;2023-12-04T01:47:53;3.50;1.00
35445;DHT22;21562;49.476;6.086;2023-12-04T01:50:19;3.50;1.00
35445;DHT22;21562;49.476;6.086;2023-12-04T01:52:46;3.60;1.00
35445;DHT22;21562;49.476;6.086;2023-12-04T01:55:12;3.70;1.00
35445;DHT22;21562;49.476;6.086;2023-12-04T01:57:38;3.70;1.00
35445;DHT22;21562;49.476;6.086;2023-12-04T02:00:05;3.40;1.00
35445;DHT22;21562;49.476;6.086;2023-12-04T02:02:39;3.50;1.00
35445;DHT22;21562;49.476;6.086;2023-12-04T02:05:08;3.40;1.00
35445;DHT22;21562;49.476;6.086;2023-12-04T02:07:34;3.20;1.00
35445;DHT22;21562;49.476;6.086;2023-12-04T02:10:03;3.30;1.00
35445;DHT22;21562;49.476;6.086;2023-12-04T02:12:29;3.40;1.00
35445;DHT22;21562;49.476;6.086;2023-12-04T02:14:55;3.20;1.00
35445;DHT22;21562;49.476;6.086;2023-12-04T02:17:21;3.30;1.00
35445;DHT22;21562;49.476;6.086;2023-12-04T02:19:47;3.50;1.00
35445;DHT22;21562;49.476;6.086;2023-12-04T02:22:13;3.30;1.00
35445;DHT22;21562;49.476;6.086;2023-12-04T02:24:39;3.10;1.00
35445;DHT22;21562;49.476;6.086;2023-12-04T02:27:12;3.20;1.00
35445;DHT22;21562;49.476;6.086;2023-12-04T02:29:59;3.30;1.00
35445;DHT22;21562;49.476;6.086;2023-12-04T02:32:31;3.40;1.00
35445;DHT22;21562;49.476;6.086;2023-12-04T02:34:59;3.30;1.00
35445;DHT22;21562;49.476;6.086;2023-12-04T02:37:28;3.40;1.00
35445;DHT22;21562;49.476;6.086;2023-12-04T02:39:54;3.30;1.00
35445;DHT22;21562;49.476;6.086;2023-12-04T02:42:21;3.30;1.00
35445;DHT22;21562;49.476;6.086;2023-12-04T02:44:47;3.40;1.00
35445;DHT22;21562;49.476;6.086;2023-12-04T02:47:13;3.50;1.00
35445;DHT22;21562;49.476;6.086;2023-12-04T02:49:39;3.40;1.00
35445;DHT22;21562;49.476;6.086;2023-12-04T02:52:05;3.60;1.00
35445;DHT22;21562;49.476;6.086;2023-12-04T02:54:30;3.60;1.00
35445;DHT22;21562;49.476;6.086;2023-12-04T02:56:56;3.50;1.00
35445;DHT22;21562;49.476;6.086;2023-12-04T02:59:22;3.60;1.00
35445;DHT22;21562;49.476;6.086;2023-12-04T03:01:47;3.70;1.00
35445;DHT22;21562;49.476;6.086;2023-12-04T03:04:13;3.70;1.00
35445;DHT22;21562;49.476;6.086;2023-12-04T03:06:39;3.70;1.00
35445;DHT22;21562;49.476;6.086;2023-12-04T03:09:04;3.70;1.00
35445;DHT22;21562;49.476;6.086;2023-12-04T03:11:30;3.60;1.00
35445;DHT22;21562;49.476;6.086;2023-12-04T03:13:56;3.80;1.00
35445;DHT22;21562;49.476;6.086;2023-12-04T03:16:22;3.90;1.00
35445;DHT22;21562;49.476;6.086;2023-12-04T03:18:47;3.80;1.00
35445;DHT22;21562;49.476;6.086;2023-12-04T03:21:13;3.90;1.00
35445;DHT22;21562;49.476;6.086;2023-12-04T03:23:39;4.10;1.00
35445;DHT22;21562;49.476;6.086;2023-12-04T03:26:04;3.70;1.00
35445;DHT22;21562;49.476;6.086;2023-12-04T03:28:30;3.60;1.00
35445;DHT22;21562;49.476;6.086;2023-12-04T03:30:56;3.30;1.00
35445;DHT22;21562;49.476;6.086;2023-12-04T03:33:21;3.20;1.00
35445;DHT22;21562;49.476;6.086;2023-12-04T03:35:47;3.10;1.00
35445;DHT22;21562;49.476;6.086;2023-12-04T03:38:13;2.90;1.00
35445;DHT22;21562;49.476;6.086;2023-12-04T03:40:38;3.10;1.00
35445;DHT22;21562;49.476;6.086;2023-12-04T03:43:04;3.20;1.00
35445;DHT22;21562;49.476;6.086;2023-12-04T03:45:30;3.00;1.00
35445;DHT22;21562;49.476;6.086;2023-12-04T03:47:55;2.50;1.00
35445;DHT22;21562;49.476;6.086;2023-12-04T03:50:21;2.60;1.00
35445;DHT22;21562;49.476;6.086;2023-12-04T03:52:47;2.40;1.00
35445;DHT22;21562;49.476;6.086;2023-12-04T03:55:12;2.40;1.00
35445;DHT22;21562;49.476;6.086;2023-12-04T03:57:38;2.20;1.00
35445;DHT22;21562;49.476;6.086;2023-12-04T04:00:05;2.10;1.00
35445;DHT22;21562;49.476;6.086;2023-12-04T04:02:31;2.30;1.00
35445;DHT22;21562;49.476;6.086;2023-12-04T04:04:57;2.20;1.00
35445;DHT22;21562;49.476;6.086;2023-12-04T04:07:22;2.20;1.00
35445;DHT22;21562;49.476;6.086;2023-12-04T04:09:48;2.30;1.00
35445;DHT22;21562;49.476;6.086;2023-12-04T04:12:14;1.70;1.00
35445;DHT22;21562;49.476;6.086;2023-12-04T04:14:39;1.80;1.00
35445;DHT22;21562;49.476;6.086;2023-12-04T04:17:05;1.50;10.40
35445;DHT22;21562;49.476;6.086;2023-12-04T04:19:31;1.40;27.00
35445;DHT22;21562;49.476;6.086;2023-12-04T04:21:56;1.40;26.40
35445;DHT22;21562;49.476;6.086;2023-12-04T04:24:22;1.50;25.70
35445;DHT22;21562;49.476;6.086;2023-12-04T04:26:48;1.60;23.40
35445;DHT22;21562;49.476;6.086;2023-12-04T04:29:13;1.50;7.70
35445;DHT22;21562;49.476;6.086;2023-12-04T04:31:39;1.40;41.30
35445;DHT22;21562;49.476;6.086;2023-12-04T04:34:05;1.40;19.20
35445;DHT22;21562;49.476;6.086;2023-12-04T04:36:30;1.30;49.30
35445;DHT22;21562;49.476;6.086;2023-12-04T04:38:56;1.40;42.70
35445;DHT22;21562;49.476;6.086;2023-12-04T04:41:21;1.30;50.90
35445;DHT22;21562;49.476;6.086;2023-12-04T04:43:47;0.90;97.30
35445;DHT22;21562;49.476;6.086;2023-12-04T04:46:13;1.30;88.00
35445;DHT22;21562;49.476;6.086;2023-12-04T04:48:40;1.40;45.50
35445;DHT22;21562;49.476;6.086;2023-12-04T04:51:06;1.50;34.00
35445;DHT22;21562;49.476;6.086;2023-12-04T04:53:32;1.40;59.10
35445;DHT22;21562;49.476;6.086;2023-12-04T04:55:57;1.50;35.70
35445;DHT22;21562;49.476;6.086;2023-12-04T04:58:23;1.20;41.60
35445;DHT22;21562;49.476;6.086;2023-12-04T05:00:49;1.20;63.10
35445;DHT22;21562;49.476;6.086;2023-12-04T05:03:14;1.10;56.80
35445;DHT22;21562;49.476;6.086;2023-12-04T05:05:40;1.20;84.90
35445;DHT22;21562;49.476;6.086;2023-12-04T05:08:06;1.30;57.60
35445;DHT22;21562;49.476;6.086;2023-12-04T05:10:31;1.30;50.40
35445;DHT22;21562;49.476;6.086;2023-12-04T05:12:57;1.60;51.60
35445;DHT22;21562;49.476;6.086;2023-12-04T05:15:23;1.80;38.70
35445;DHT22;21562;49.476;6.086;2023-12-04T05:17:48;1.80;23.30
35445;DHT22;21562;49.476;6.086;2023-12-04T05:20:14;1.70;24.70
35445;DHT22;21562;49.476;6.086;2023-12-04T05:22:40;1.60;44.30
35445;DHT22;21562;49.476;6.086;2023-12-04T05:25:06;1.80;31.90
35445;DHT22;21562;49.476;6.086;2023-12-04T05:27:32;1.50;46.00
35445;DHT22;21562;49.476;6.086;2023-12-04T05:29:58;1.20;65.10
35445;DHT22;21562;49.476;6.086;2023-12-04T05:32:23;1.20;93.40
35445;DHT22;21562;49.476;6.086;2023-12-04T05:34:49;1.00;97.30
35445;DHT22;21562;49.476;6.086;2023-12-04T05:37:14;1.00;99.90
35445;DHT22;21562;49.476;6.086;2023-12-04T05:39:41;1.20;92.80
35445;DHT22;21562;49.476;6.086;2023-12-04T05:42:07;1.10;96.60
35445;DHT22;21562;49.476;6.086;2023-12-04T05:44:33;1.20;91.20
35445;DHT22;21562;49.476;6.086;2023-12-04T05:47:00;1.00;99.90
35445;DHT22;21562;49.476;6.086;2023-12-04T05:49:25;1.30;70.70
35445;DHT22;21562;49.476;6.086;2023-12-04T05:51:51;0.90;99.90
35445;DHT22;21562;49.476;6.086;2023-12-04T05:54:17;1.20;99.60
35445;DHT22;21562;49.476;6.086;2023-12-04T05:56:42;1.20;64.20
35445;DHT22;21562;49.476;6.086;2023-12-04T05:59:08;1.40;91.20
35445;DHT22;21562;49.476;6.086;2023-12-04T06:01:34;1.50;47.00
35445;DHT22;21562;49.476;6.086;2023-12-04T06:03:59;1.50;66.10
35445;DHT22;21562;49.476;6.086;2023-12-04T06:06:26;1.60;50.10
35445;DHT22;21562;49.476;6.086;2023-12-04T06:08:52;1.60;39.20
35445;DHT22;21562;49.476;6.086;2023-12-04T06:11:18;1.80;45.80
35445;DHT22;21562;49.476;6.086;2023-12-04T06:13:43;2.00;15.30
35445;DHT22;21562;49.476;6.086;2023-12-04T06:16:09;1.90;28.20
35445;DHT22;21562;49.476;6.086;2023-12-04T06:18:35;2.20;10.20
35445;DHT22;21562;49.476;6.086;2023-12-04T06:21:01;1.40;43.00
35445;DHT22;21562;49.476;6.086;2023-12-04T06:23:26;1.60;37.80
35445;DHT22;21562;49.476;6.086;2023-12-04T06:25:52;1.60;23.00
35445;DHT22;21562;49.476;6.086;2023-12-04T06:28:18;1.80;21.80
35445;DHT22;21562;49.476;6.086;2023-12-04T06:30:44;1.80;15.20
35445;DHT22;21562;49.476;6.086;2023-12-04T06:33:10;1.70;18.90
35445;DHT22;21562;49.476;6.086;2023-12-04T06:35:36;1.50;37.50
35445;DHT22;21562;49.476;6.086;2023-12-04T06:38:06;1.50;27.30
35445;DHT22;21562;49.476;6.086;2023-12-04T06:40:32;1.40;29.60
35445;DHT22;21562;49.476;6.086;2023-12-04T06:42:59;1.40;50.20
35445;DHT22;21562;49.476;6.086;2023-12-04T06:45:25;1.70;34.40
35445;DHT22;21562;49.476;6.086;2023-12-04T06:47:52;1.60;21.30
35445;DHT22;21562;49.476;6.086;2023-12-04T06:50:19;1.60;37.40
35445;DHT22;21562;49.476;6.086;2023-12-04T06:52:44;1.80;18.70
35445;DHT22;21562;49.476;6.086;2023-12-04T06:55:12;2.10;15.20
35445;DHT22;21562;49.476;6.086;2023-12-04T06:57:37;2.30;1.40
35445;DHT22;21562;49.476;6.086;2023-12-04T07:00:04;2.40;1.00
35445;DHT22;21562;49.476;6.086;2023-12-04T07:02:32;2.20;1.00
35445;DHT22;21562;49.476;6.086;2023-12-04T07:04:57;1.90;24.70
35445;DHT22;21562;49.476;6.086;2023-12-04T07:07:23;1.80;12.50
35445;DHT22;21562;49.476;6.086;2023-12-04T07:09:49;1.70;22.20
35445;DHT22;21562;49.476;6.086;2023-12-04T07:12:14;1.90;21.00
35445;DHT22;21562;49.476;6.086;2023-12-04T07:14:40;2.00;8.60
35445;DHT22;21562;49.476;6.086;2023-12-04T07:17:05;2.00;17.80
35445;DHT22;21562;49.476;6.086;2023-12-04T07:19:31;2.10;18.30
35445;DHT22;21562;49.476;6.086;2023-12-04T07:21:57;2.10;5.40
35445;DHT22;21562;49.476;6.086;2023-12-04T07:24:22;2.30;5.00
35445;DHT22;21562;49.476;6.086;2023-12-04T07:26:48;2.50;1.00
35445;DHT22;21562;49.476;6.086;2023-12-04T07:29:14;2.60;1.00
35445;DHT22;21562;49.476;6.086;2023-12-04T07:31:41;2.30;1.00
35445;DHT22;21562;49.476;6.086;2023-12-04T07:34:07;2.20;1.30
35445;DHT22;21562;49.476;6.086;2023-12-04T07:36:32;2.40;3.00
35445;DHT22;21562;49.476;6.086;2023-12-04T07:38:58;2.50;1.00
35445;DHT22;21562;49.476;6.086;2023-12-04T07:41:24;2.60;1.00
35445;DHT22;21562;49.476;6.086;2023-12-04T07:43:50;2.50;1.00
35445;DHT22;21562;49.476;6.086;2023-12-04T07:46:16;2.70;1.00
35445;DHT22;21562;49.476;6.086;2023-12-04T07:48:42;2.40;1.00
35445;DHT22;21562;49.476;6.086;2023-12-04T07:51:09;2.60;1.00
35445;DHT22;21562;49.476;6.086;2023-12-04T07:53:35;2.70;1.00
35445;DHT22;21562;49.476;6.086;2023-12-04T07:56:02;2.90;1.00
35445;DHT22;21562;49.476;6.086;2023-12-04T07:58:31;3.10;1.00
35445;DHT22;21562;49.476;6.086;2023-12-04T08:00:57;3.20;1.00
35445;DHT22;21562;49.476;6.086;2023-12-04T08:03:23;3.20;1.00
35445;DHT22;21562;49.476;6.086;2023-12-04T08:05:53;3.00;1.00
35445;DHT22;21562;49.476;6.086;2023-12-04T08:08:18;3.10;1.00
35445;DHT22;21562;49.476;6.086;2023-12-04T08:10:44;3.10;1.00
35445;DHT22;21562;49.476;6.086;2023-12-04T08:13:10;3.00;1.00
35445;DHT22;21562;49.476;6.086;2023-12-04T08:15:36;3.00;1.00
35445;DHT22;21562;49.476;6.086;2023-12-04T08:18:01;3.00;1.00
35445;DHT22;21562;49.476;6.086;2023-12-04T08:20:28;3.10;1.00
35445;DHT22;21562;49.476;6.086;2023-12-04T08:22:53;3.10;11.10
35445;DHT22;21562;49.476;6.086;2023-12-04T08:25:20;3.20;14.00
35445;DHT22;21562;49.476;6.086;2023-12-04T08:27:46;3.00;50.00
35445;DHT22;21562;49.476;6.086;2023-12-04T08:30:11;2.40;99.90
35445;DHT22;21562;49.476;6.086;2023-12-04T08:32:37;2.60;99.90
35445;DHT22;21562;49.476;6.086;2023-12-04T08:35:03;2.80;93.60
35445;DHT22;21562;49.476;6.086;2023-12-04T08:37:31;2.60;99.90
35445;DHT22;21562;49.476;6.086;2023-12-04T08:39:57;2.70;99.90
35445;DHT22;21562;49.476;6.086;2023-12-04T08:42:22;2.70;99.90
35445;DHT22;21562;49.476;6.086;2023-12-04T08:44:48;2.80;99.90
35445;DHT22;21562;49.476;6.086;2023-12-04T08:47:14;2.90;99.90
35445;DHT22;21562;49.476;6.086;2023-12-04T08:49:43;2.60;99.90
35445;DHT22;21562;49.476;6.086;2023-12-04T08:52:09;2.30;99.90
35445;DHT22;21562;49.476;6.086;2023-12-04T08:54:38;2.40;99.90
35445;DHT22;21562;49.476;6.086;2023-12-04T08:57:04;2.30;99.90
35445;DHT22;21562;49.476;6.086;2023-12-04T08:59:29;2.30;99.90
35445;DHT22;21562;49.476;6.086;2023-12-04T09:01:55;2.20;99.90
35445;DHT22;21562;49.476;6.086;2023-12-04T09:04:21;2.10;99.90
35445;DHT22;21562;49.476;6.086;2023-12-04T09:06:47;2.10;99.90
35445;DHT22;21562;49.476;6.086;2023-12-04T09:09:12;2.10;99.90
35445;DHT22;21562;49.476;6.086;2023-12-04T09:11:44;2.10;99.90
35445;DHT22;21562;49.476;6.086;2023-12-04T09:14:10;1.80;99.90
35445;DHT22;21562;49.476;6.086;2023-12-04T09:16:36;1.80;99.90
35445;DHT22;21562;49.476;6.086;2023-12-04T09:19:02;1.80;99.90
35445;DHT22;21562;49.476;6.086;2023-12-04T09:21:28;1.60;99.90
35445;DHT22;21562;49.476;6.086;2023-12-04T09:23:53;1.70;99.90
35445;DHT22;21562;49.476;6.086;2023-12-04T09:26:19;1.80;99.90
35445;DHT22;21562;49.476;6.086;2023-12-04T09:28:45;1.80;99.90
35445;DHT22;21562;49.476;6.086;2023-12-04T09:31:10;1.90;99.90
35445;DHT22;21562;49.476;6.086;2023-12-04T09:33:36;2.00;99.90
35445;DHT22;21562;49.476;6.086;2023-12-04T09:36:03;2.00;99.90
35445;DHT22;21562;49.476;6.086;2023-12-04T09:38:31;2.10;99.90
35445;DHT22;21562;49.476;6.086;2023-12-04T09:40:59;2.10;99.90
35445;DHT22;21562;49.476;6.086;2023-12-04T09:43:30;1.90;99.90
35445;DHT22;21562;49.476;6.086;2023-12-04T09:45:56;2.10;99.90
35445;DHT22;21562;49.476;6.086;2023-12-04T09:48:25;2.20;99.90
35445;DHT22;21562;49.476;6.086;2023-12-04T09:50:52;2.20;99.90
35445;DHT22;21562;49.476;6.086;2023-12-04T09:53:17;2.30;99.90
35445;DHT22;21562;49.476;6.086;2023-12-04T09:55:44;2.10;99.90
35445;DHT22;21562;49.476;6.086;2023-12-04T09:58:14;2.10;99.90
35445;DHT22;21562;49.476;6.086;2023-12-04T10:00:41;2.30;99.90
35445;DHT22;21562;49.476;6.086;2023-12-04T10:03:08;2.30;99.90
35445;DHT22;21562;49.476;6.086;2023-12-04T10:05:33;2.30;99.90
35445;DHT22;21562;49.476;6.086;2023-12-04T10:07:59;1.90;99.90
35445;DHT22;21562;49.476;6.086;2023-12-04T10:10:25;2.10;99.90
35445;DHT22;21562;49.476;6.086;2023-12-04T10:12:51;2.40;99.90
35445;DHT22;21562;49.476;6.086;2023-12-04T10:15:16;2.50;99.90
35445;DHT22;21562;49.476;6.086;2023-12-04T10:17:43;2.80;99.90
35445;DHT22;21562;49.476;6.086;2023-12-04T10:20:13;2.80;99.90
35445;DHT22;21562;49.476;6.086;2023-12-04T10:22:54;2.60;99.90
35445;DHT22;21562;49.476;6.086;2023-12-04T10:25:20;2.80;99.90
35445;DHT22;21562;49.476;6.086;2023-12-04T10:27:46;2.90;99.90
35445;DHT22;21562;49.476;6.086;2023-12-04T10:30:26;2.50;99.90
35445;DHT22;21562;49.476;6.086;2023-12-04T10:32:56;2.20;99.90
35445;DHT22;21562;49.476;6.086;2023-12-04T10:35:29;2.40;99.90
35445;DHT22;21562;49.476;6.086;2023-12-04T10:37:56;2.60;99.90
35445;DHT22;21562;49.476;6.086;2023-12-04T10:40:33;2.80;99.90
35445;DHT22;21562;49.476;6.086;2023-12-04T10:43:18;3.00;99.90
35445;DHT22;21562;49.476;6.086;2023-12-04T10:45:47;3.20;99.90
35445;DHT22;21562;49.476;6.086;2023-12-04T10:48:16;3.30;99.90
35445;DHT22;21562;49.476;6.086;2023-12-04T10:50:44;3.50;99.90
35445;DHT22;21562;49.476;6.086;2023-12-04T10:53:11;3.70;99.90
35445;DHT22;21562;49.476;6.086;2023-12-04T10:55:39;3.60;99.90
35445;DHT22;21562;49.476;6.086;2023-12-04T10:58:14;3.70;99.90
35445;DHT22;21562;49.476;6.086;2023-12-04T11:00:44;3.80;99.90
35445;DHT22;21562;49.476;6.086;2023-12-04T11:03:16;3.70;99.90
35445;DHT22;21562;49.476;6.086;2023-12-04T11:05:45;3.80;99.90
35445;DHT22;21562;49.476;6.086;2023-12-04T11:08:17;3.80;99.90
35445;DHT22;21562;49.476;6.086;2023-12-04T11:11:04;3.90;99.90
35445;DHT22;21562;49.476;6.086;2023-12-04T11:13:35;4.10;99.90
35445;DHT22;21562;49.476;6.086;2023-12-04T11:16:09;4.20;99.90
35445;DHT22;21562;49.476;6.086;2023-12-04T11:18:43;4.30;99.90
35445;DHT22;21562;49.476;6.086;2023-12-04T11:21:10;4.00;99.90
35445;DHT22;21562;49.476;6.086;2023-12-04T11:23:36;4.00;99.90
35445;DHT22;21562;49.476;6.086;2023-12-04T11:26:03;4.00;99.90
35445;DHT22;21562;49.476;6.086;2023-12-04T11:28:31;4.10;99.90
35445;DHT22;21562;49.476;6.086;2023-12-04T11:30:57;4.20;99.90
35445;DHT22;21562;49.476;6.086;2023-12-04T11:33:24;4.10;99.90
35445;DHT22;21562;49.476;6.086;2023-12-04T11:35:50;5.60;99.90
35445;DHT22;21562;49.476;6.086;2023-12-04T11:38:17;5.10;99.90
35445;DHT22;21562;49.476;6.086;2023-12-04T11:40:43;5.10;99.90
35445;DHT22;21562;49.476;6.086;2023-12-04T11:43:25;4.90;99.90
35445;DHT22;21562;49.476;6.086;2023-12-04T11:45:51;4.60;99.90
35445;DHT22;21562;49.476;6.086;2023-12-04T11:48:25;4.50;99.90
35445;DHT22;21562;49.476;6.086;2023-12-04T11:50:51;4.40;99.90
35445;DHT22;21562;49.476;6.086;2023-12-04T11:53:16;4.40;99.90
35445;DHT22;21562;49.476;6.086;2023-12-04T11:55:42;4.40;99.90
35445;DHT22;21562;49.476;6.086;2023-12-04T11:58:11;4.30;99.90
35445;DHT22;21562;49.476;6.086;2023-12-04T12:00:37;4.30;99.90
35445;DHT22;21562;49.476;6.086;2023-12-04T12:03:07;4.20;99.90
35445;DHT22;21562;49.476;6.086;2023-12-04T12:05:35;4.30;99.90
35445;DHT22;21562;49.476;6.086;2023-12-04T12:08:02;4.30;99.90
35445;DHT22;21562;49.476;6.086;2023-12-04T12:10:29;4.20;99.90
35445;DHT22;21562;49.476;6.086;2023-12-04T12:12:55;4.00;99.90
35445;DHT22;21562;49.476;6.086;2023-12-04T12:15:22;4.20;99.90
35445;DHT22;21562;49.476;6.086;2023-12-04T12:17:49;4.40;99.90
35445;DHT22;21562;49.476;6.086;2023-12-04T12:20:16;4.30;99.90
35445;DHT22;21562;49.476;6.086;2023-12-04T12:22:42;3.90;99.90
35445;DHT22;21562;49.476;6.086;2023-12-04T12:25:11;3.80;99.90
35445;DHT22;21562;49.476;6.086;2023-12-04T12:27:38;3.80;99.90
35445;DHT22;21562;49.476;6.086;2023-12-04T12:30:04;3.90;99.90
35445;DHT22;21562;49.476;6.086;2023-12-04T12:32:34;3.80;99.90
35445;DHT22;21562;49.476;6.086;2023-12-04T12:35:01;3.80;99.90
35445;DHT22;21562;49.476;6.086;2023-12-04T12:37:26;3.80;99.90
35445;DHT22;21562;49.476;6.086;2023-12-04T12:39:52;3.70;99.90
35445;DHT22;21562;49.476;6.086;2023-12-04T12:42:24;3.60;99.90
35445;DHT22;21562;49.476;6.086;2023-12-04T12:44:50;3.60;99.90
35445;DHT22;21562;49.476;6.086;2023-12-04T12:47:16;3.80;99.90
35445;DHT22;21562;49.476;6.086;2023-12-04T12:49:41;3.70;99.90
35445;DHT22;21562;49.476;6.086;2023-12-04T12:52:09;3.80;99.90
35445;DHT22;21562;49.476;6.086;2023-12-04T12:54:44;3.80;99.90
35445;DHT22;21562;49.476;6.086;2023-12-04T12:57:11;3.50;99.90
35445;DHT22;21562;49.476;6.086;2023-12-04T12:59:38;3.60;99.90
35445;DHT22;21562;49.476;6.086;2023-12-04T13:02:05;3.80;99.90
35445;DHT22;21562;49.476;6.086;2023-12-04T13:07:01;4.20;99.90
35445;DHT22;21562;49.476;6.086;2023-12-04T13:09:30;4.40;99.90
35445;DHT22;21562;49.476;6.086;2023-12-04T13:11:56;4.60;99.90
35445;DHT22;21562;49.476;6.086;2023-12-04T13:14:21;4.70;99.90
35445;DHT22;21562;49.476;6.086;2023-12-04T13:16:47;4.90;99.90
35445;DHT22;21562;49.476;6.086;2023-12-04T13:19:13;4.70;99.90
35445;DHT22;21562;49.476;6.086;2023-12-04T13:21:38;4.70;99.90
35445;DHT22;21562;49.476;6.086;2023-12-04T13:24:04;4.80;99.90
35445;DHT22;21562;49.476;6.086;2023-12-04T13:26:33;4.60;99.90
35445;DHT22;21562;49.476;6.086;2023-12-04T13:28:59;4.70;99.90
35445;DHT22;21562;49.476;6.086;2023-12-04T13:31:25;4.90;99.90
35445;DHT22;21562;49.476;6.086;2023-12-04T13:33:51;4.90;99.90
35445;DHT22;21562;49.476;6.086;2023-12-04T13:36:17;5.00;99.90
35445;DHT22;21562;49.476;6.086;2023-12-04T13:38:42;4.90;99.90
35445;DHT22;21562;49.476;6.086;2023-12-04T13:41:08;4.70;99.90
35445;DHT22;21562;49.476;6.086;2023-12-04T13:43:54;4.70;99.90
35445;DHT22;21562;49.476;6.086;2023-12-04T13:46:21;4.80;99.90
35445;DHT22;21562;49.476;6.086;2023-12-04T13:48:46;4.90;99.90
35445;DHT22;21562;49.476;6.086;2023-12-04T13:51:13;5.00;99.90
35445;DHT22;21562;49.476;6.086;2023-12-04T13:53:39;4.90;99.90
35445;DHT22;21562;49.476;6.086;2023-12-04T13:56:13;5.00;99.90
35445;DHT22;21562;49.476;6.086;2023-12-04T13:59:05;4.80;99.90
35445;DHT22;21562;49.476;6.086;2023-12-04T14:01:32;4.60;99.90
35445;DHT22;21562;49.476;6.086;2023-12-04T14:03:58;4.90;99.90
35445;DHT22;21562;49.476;6.086;2023-12-04T14:06:31;5.10;99.90
35445;DHT22;21562;49.476;6.086;2023-12-04T14:08:58;4.90;99.90
35445;DHT22;21562;49.476;6.086;2023-12-04T14:11:24;5.00;99.90
35445;DHT22;21562;49.476;6.086;2023-12-04T14:13:50;5.00;99.90
35445;DHT22;21562;49.476;6.086;2023-12-04T14:16:17;4.90;99.90
35445;DHT22;21562;49.476;6.086;2023-12-04T14:18:42;4.60;99.90
35445;DHT22;21562;49.476;6.086;2023-12-04T14:21:08;4.90;99.90
35445;DHT22;21562;49.476;6.086;2023-12-04T14:23:34;5.00;99.90
35445;DHT22;21562;49.476;6.086;2023-12-04T14:26:00;5.00;99.90
35445;DHT22;21562;49.476;6.086;2023-12-04T14:28:27;5.20;99.90
35445;DHT22;21562;49.476;6.086;2023-12-04T14:30:53;5.10;99.90
35445;DHT22;21562;49.476;6.086;2023-12-04T14:33:20;5.10;99.90
35445;DHT22;21562;49.476;6.086;2023-12-04T14:35:45;5.10;99.90
35445;DHT22;21562;49.476;6.086;2023-12-04T14:38:11;5.10;99.90
35445;DHT22;21562;49.476;6.086;2023-12-04T14:40:37;5.10;99.90
35445;DHT22;21562;49.476;6.086;2023-12-04T14:43:02;5.10;99.90
35445;DHT22;21562;49.476;6.086;2023-12-04T14:45:28;5.00;99.90
35445;DHT22;21562;49.476;6.086;2023-12-04T14:47:54;5.10;99.90
35445;DHT22;21562;49.476;6.086;2023-12-04T14:50:22;5.00;99.90
35445;DHT22;21562;49.476;6.086;2023-12-04T14:52:49;4.90;99.90
35445;DHT22;21562;49.476;6.086;2023-12-04T14:55:19;5.00;99.90
35445;DHT22;21562;49.476;6.086;2023-12-04T14:57:51;4.90;99.90
35445;DHT22;21562;49.476;6.086;2023-12-04T15:00:55;4.90;99.90
35445;DHT22;21562;49.476;6.086;2023-12-04T15:03:24;5.20;99.90
35445;DHT22;21562;49.476;6.086;2023-12-04T15:06:08;5.30;99.90
35445;DHT22;21562;49.476;6.086;2023-12-04T15:08:37;5.10;99.90
35445;DHT22;21562;49.476;6.086;2023-12-04T15:11:28;5.00;99.90
35445;DHT22;21562;49.476;6.086;2023-12-04T15:14:06;5.10;99.90
35445;DHT22;21562;49.476;6.086;2023-12-04T15:16:50;5.10;99.90
35445;DHT22;21562;49.476;6.086;2023-12-04T15:19:21;5.20;99.90
35445;DHT22;21562;49.476;6.086;2023-12-04T15:22:09;5.20;99.90
35445;DHT22;21562;49.476;6.086;2023-12-04T15:24:35;5.10;99.90
35445;DHT22;21562;49.476;6.086;2023-12-04T15:27:02;5.00;99.90
35445;DHT22;21562;49.476;6.086;2023-12-04T15:29:28;5.00;99.90
35445;DHT22;21562;49.476;6.086;2023-12-04T15:31:55;5.10;99.90
35445;DHT22;21562;49.476;6.086;2023-12-04T15:34:21;5.20;99.90
35445;DHT22;21562;49.476;6.086;2023-12-04T15:36:47;5.20;99.90
35445;DHT22;21562;49.476;6.086;2023-12-04T15:39:13;5.30;99.90
35445;DHT22;21562;49.476;6.086;2023-12-04T15:41:41;5.10;99.90
35445;DHT22;21562;49.476;6.086;2023-12-04T15:44:07;5.10;99.90
35445;DHT22;21562;49.476;6.086;2023-12-04T15:46:34;5.00;99.90
35445;DHT22;21562;49.476;6.086;2023-12-04T15:48:59;5.00;99.90
35445;DHT22;21562;49.476;6.086;2023-12-04T15:51:25;5.00;99.90
35445;DHT22;21562;49.476;6.086;2023-12-04T15:53:50;5.20;99.90